createdAt,value
2019-01-14T00:00:03.627Z,4.4
2019-01-14T00:01:03.082Z,4.4
2019-01-14T00:02:02.642Z,4.5
2019-01-14T00:03:02.992Z,4.5
2019-01-14T00:04:03.185Z,4.5
2019-01-14T00:05:02.672Z,4.6
2019-01-14T00:06:10.524Z,4.5
2019-01-14T00:07:02.997Z,4.7
2019-01-14T00:08:02.843Z,4.7
2019-01-14T00:09:06.298Z,4.6
2019-01-14T00:10:03.343Z,4.7
2019-01-14T00:11:02.702Z,4.8
2019-01-14T00:12:03.380Z,4.8
2019-01-14T00:13:02.513Z,4.9
2019-01-14T00:14:02.854Z,4.8
2019-01-14T00:15:02.934Z,4.8
2019-01-14T00:16:03.182Z,4.9
2019-01-14T00:17:02.551Z,4.8
2019-01-14T00:18:03.348Z,4.8
2019-01-14T00:19:03.228Z,4.8
2019-01-14T00:20:03.336Z,4.8
2019-01-14T00:21:03.460Z,4.8
2019-01-14T00:22:03.093Z,4.8
2019-01-14T00:23:03.652Z,4.8
2019-01-14T00:24:03.642Z,4.8
2019-01-14T00:25:03.217Z,4.8
2019-01-14T00:26:03.693Z,4.8
2019-01-14T00:27:03.324Z,4.8
2019-01-14T00:28:03.547Z,4.8
2019-01-14T00:29:03.278Z,4.8
2019-01-14T00:30:02.490Z,4.8
2019-01-14T00:31:03.097Z,4.7
2019-01-14T00:32:03.354Z,4.7
2019-01-14T00:33:03.208Z,4.7
2019-01-14T00:34:02.808Z,4.7
2019-01-14T00:35:03.018Z,4.8
2019-01-14T00:36:03.244Z,4.8
2019-01-14T00:37:03.376Z,4.8
2019-01-14T00:38:02.844Z,4.7
2019-01-14T00:39:03.643Z,4.6
2019-01-14T00:40:03.399Z,4.7
2019-01-14T00:41:03.171Z,4.7
2019-01-14T00:42:03.442Z,4.6
2019-01-14T00:43:03.336Z,4.6
2019-01-14T00:44:03.142Z,4.6
2019-01-14T00:45:03.282Z,4.6
2019-01-14T00:46:03.365Z,4.6
2019-01-14T00:47:03.687Z,4.7
2019-01-14T00:48:03.346Z,4.7
2019-01-14T00:49:02.853Z,4.7
2019-01-14T00:50:03.660Z,4.7
2019-01-14T00:51:03.273Z,4.7
2019-01-14T00:52:03.232Z,4.7
2019-01-14T00:53:03.434Z,4.7
2019-01-14T00:54:02.838Z,4.8
2019-01-14T00:55:03.552Z,4.8
2019-01-14T00:56:03.222Z,4.8
2019-01-14T00:57:03.317Z,4.7
2019-01-14T00:58:02.802Z,4.7
2019-01-14T00:59:03.553Z,4.6
2019-01-14T01:00:02.850Z,4.7
2019-01-14T01:01:03.587Z,4.7
2019-01-14T01:02:04.281Z,4.7
2019-01-14T01:03:03.235Z,4.6
2019-01-14T01:04:03.583Z,4.6
2019-01-14T01:05:03.654Z,4.6
2019-01-14T01:06:02.832Z,4.6
2019-01-14T01:07:03.293Z,4.6
2019-01-14T01:08:02.926Z,4.6
2019-01-14T01:09:03.507Z,4.6
2019-01-14T01:10:02.902Z,4.4
2019-01-14T01:11:02.873Z,4.5
2019-01-14T01:12:02.742Z,4.5
2019-01-14T01:13:03.439Z,4.5
2019-01-14T01:14:03.487Z,4.5
2019-01-14T01:15:03.330Z,4.4
2019-01-14T01:16:03.611Z,4.4
2019-01-14T01:17:03.764Z,4.4
2019-01-14T01:18:03.043Z,4.3
2019-01-14T01:19:02.825Z,4.4
2019-01-14T01:20:03.310Z,4.4
2019-01-14T01:21:03.296Z,4.3
2019-01-14T01:22:03.269Z,4.4
2019-01-14T01:23:03.087Z,4.3
2019-01-14T01:24:03.800Z,4.3
2019-01-14T01:25:03.691Z,4.3
2019-01-14T01:26:03.700Z,4.3
2019-01-14T01:27:03.275Z,4.2
2019-01-14T01:28:03.418Z,4.2
2019-01-14T01:29:03.517Z,4.1
2019-01-14T01:30:02.773Z,4.1
2019-01-14T01:31:03.290Z,4.1
2019-01-14T01:32:03.090Z,4.1
2019-01-14T01:33:02.978Z,4.1
2019-01-14T01:34:03.047Z,4
2019-01-14T01:35:03.006Z,4
2019-01-14T01:36:03.500Z,4.1
2019-01-14T01:37:03.334Z,3.9
2019-01-14T01:38:03.467Z,3.9
2019-01-14T01:39:03.339Z,3.9
2019-01-14T01:40:03.516Z,3.9
2019-01-14T01:41:03.307Z,3.9
2019-01-14T01:42:03.122Z,4
2019-01-14T01:43:02.954Z,4
2019-01-14T01:44:03.070Z,4.1
2019-01-14T01:45:03.244Z,4.1
2019-01-14T01:46:03.002Z,4
2019-01-14T01:47:03.489Z,3.9
2019-01-14T01:48:03.035Z,3.8
2019-01-14T01:49:03.352Z,3.9
2019-01-14T01:50:03.177Z,3.8
2019-01-14T01:51:03.401Z,3.8
2019-01-14T01:52:03.497Z,3.7
2019-01-14T01:53:03.368Z,3.7
2019-01-14T01:54:03.225Z,3.8
2019-01-14T01:55:03.549Z,3.8
2019-01-14T01:56:03.181Z,3.7
2019-01-14T01:57:02.721Z,3.7
2019-01-14T01:58:03.146Z,3.7
2019-01-14T01:59:03.288Z,3.6
2019-01-14T02:00:03.205Z,3.7
2019-01-14T02:01:03.522Z,3.6
2019-01-14T02:02:03.624Z,3.6
2019-01-14T02:03:02.837Z,3.6
2019-01-14T02:04:03.351Z,3.6
2019-01-14T02:05:03.507Z,3.6
2019-01-14T02:06:02.579Z,3.6
2019-01-14T02:07:02.873Z,3.6
2019-01-14T02:08:02.741Z,3.6
2019-01-14T02:09:02.747Z,3.6
2019-01-14T02:10:03.818Z,3.6
2019-01-14T02:11:02.918Z,3.6
2019-01-14T02:12:03.367Z,3.6
2019-01-14T02:13:03.665Z,3.6
2019-01-14T02:14:03.076Z,3.6
2019-01-14T02:15:02.970Z,3.6
2019-01-14T02:16:03.171Z,3.6
2019-01-14T02:17:03.249Z,3.6
2019-01-14T02:18:03.163Z,3.6
2019-01-14T02:19:03.276Z,3.6
2019-01-14T02:20:03.595Z,3.6
2019-01-14T02:21:03.559Z,3.6
2019-01-14T02:22:02.759Z,3.7
2019-01-14T02:23:03.571Z,3.8
2019-01-14T02:24:03.273Z,3.8
2019-01-14T02:25:03.453Z,3.7
2019-01-14T02:26:02.978Z,3.7
2019-01-14T02:27:03.546Z,3.7
2019-01-14T02:28:03.188Z,3.6
2019-01-14T02:29:03.326Z,3.7
2019-01-14T02:30:03.524Z,3.8
2019-01-14T02:31:03.223Z,3.8
2019-01-14T02:32:03.659Z,3.8
2019-01-14T02:33:02.999Z,3.8
2019-01-14T02:34:03.398Z,3.7
2019-01-14T02:35:03.817Z,3.7
2019-01-14T02:36:03.074Z,3.8
2019-01-14T02:37:03.590Z,3.7
2019-01-14T02:38:03.371Z,3.7
2019-01-14T02:39:03.002Z,3.6
2019-01-14T02:40:03.400Z,3.6
2019-01-14T02:41:03.487Z,3.5
2019-01-14T02:42:03.469Z,3.6
2019-01-14T02:43:02.980Z,3.6
2019-01-14T02:44:03.032Z,3.6
2019-01-14T02:45:02.934Z,3.6
2019-01-14T02:46:02.821Z,3.6
2019-01-14T02:47:03.033Z,3.6
2019-01-14T02:48:01.847Z,3.6
2019-01-14T02:49:03.143Z,3.6
2019-01-14T02:50:03.690Z,3.6
2019-01-14T02:51:03.058Z,3.6
2019-01-14T02:52:03.034Z,3.6
2019-01-14T02:53:03.291Z,3.6
2019-01-14T02:54:03.008Z,3.6
2019-01-14T02:55:03.055Z,3.6
2019-01-14T02:56:03.036Z,3.6
2019-01-14T02:57:03.332Z,3.6
2019-01-14T02:58:03.579Z,3.6
2019-01-14T02:59:02.833Z,3.6
2019-01-14T03:00:03.412Z,3.6
2019-01-14T03:01:03.713Z,3.6
2019-01-14T03:02:03.588Z,3.6
2019-01-14T03:03:03.095Z,3.6
2019-01-14T03:04:02.966Z,3.6
2019-01-14T03:05:03.557Z,3.6
2019-01-14T03:06:03.455Z,3.6
2019-01-14T03:07:03.451Z,3.7
2019-01-14T03:08:03.667Z,3.6
2019-01-14T03:09:03.497Z,3.6
2019-01-14T03:10:03.417Z,3.6
2019-01-14T03:11:03.047Z,3.6
2019-01-14T03:12:02.744Z,3.6
2019-01-14T03:13:02.905Z,3.6
2019-01-14T03:14:02.816Z,3.6
2019-01-14T03:15:03.650Z,3.6
2019-01-14T03:16:03.476Z,3.6
2019-01-14T03:17:02.960Z,3.6
2019-01-14T03:18:03.004Z,3.6
2019-01-14T03:19:02.857Z,3.6
2019-01-14T03:20:02.910Z,3.6
2019-01-14T03:21:02.920Z,3.6
2019-01-14T03:22:03.598Z,3.6
2019-01-14T03:23:03.678Z,3.6
2019-01-14T03:24:03.679Z,3.6
2019-01-14T03:25:03.771Z,3.6
2019-01-14T03:26:03.210Z,3.6
2019-01-14T03:27:02.722Z,3.5
2019-01-14T03:28:03.289Z,3.5
2019-01-14T03:29:02.684Z,3.5
2019-01-14T03:30:03.031Z,3.5
2019-01-14T03:31:02.785Z,3.5
2019-01-14T03:32:02.965Z,3.5
2019-01-14T03:33:02.762Z,3.5
2019-01-14T03:34:02.857Z,3.4
2019-01-14T03:35:03.513Z,3.4
2019-01-14T03:36:03.025Z,3.4
2019-01-14T03:37:05.867Z,3.4
2019-01-14T03:38:02.806Z,3.4
2019-01-14T03:39:03.750Z,3.4
2019-01-14T03:40:03.652Z,3.4
2019-01-14T03:41:02.928Z,3.4
2019-01-14T03:42:03.568Z,3.4
2019-01-14T03:43:03.352Z,3.4
2019-01-14T03:44:03.342Z,3.4
2019-01-14T03:45:03.032Z,3.4
2019-01-14T03:46:03.145Z,3.4
2019-01-14T03:47:03.228Z,3.4
2019-01-14T03:48:02.872Z,3.4
2019-01-14T03:49:03.530Z,3.4
2019-01-14T03:50:02.980Z,3.4
2019-01-14T03:51:02.913Z,3.4
2019-01-14T03:52:03.380Z,3.4
2019-01-14T03:53:03.307Z,3.4
2019-01-14T03:54:03.489Z,3.4
2019-01-14T03:55:03.801Z,3.4
2019-01-14T03:56:03.651Z,3.4
2019-01-14T03:57:03.509Z,3.4
2019-01-14T03:58:03.454Z,3.4
2019-01-14T03:59:03.007Z,3.4
2019-01-14T04:00:02.844Z,3.4
2019-01-14T04:01:03.165Z,3.4
2019-01-14T04:02:03.987Z,3.4
2019-01-14T04:03:03.559Z,3.4
2019-01-14T04:04:02.980Z,3.4
2019-01-14T04:05:03.504Z,3.4
2019-01-14T04:06:03.568Z,3.4
2019-01-14T04:07:03.262Z,3.4
2019-01-14T04:08:03.137Z,3.4
2019-01-14T04:09:02.641Z,3.4
2019-01-14T04:10:02.944Z,3.4
2019-01-14T04:11:03.623Z,3.4
2019-01-14T04:12:03.508Z,3.4
2019-01-14T04:13:03.227Z,3.4
2019-01-14T04:14:03.591Z,3.3
2019-01-14T04:15:03.684Z,3.4
2019-01-14T04:16:03.538Z,3.3
2019-01-14T04:17:02.773Z,3.3
2019-01-14T04:18:03.570Z,3.3
2019-01-14T04:19:03.091Z,3.4
2019-01-14T04:20:03.119Z,3.4
2019-01-14T04:21:02.751Z,3.3
2019-01-14T04:22:03.705Z,3.3
2019-01-14T04:23:03.387Z,3.3
2019-01-14T04:24:03.563Z,3.3
2019-01-14T04:25:03.174Z,3.3
2019-01-14T04:26:03.438Z,3.3
2019-01-14T04:27:02.574Z,3.3
2019-01-14T04:28:03.351Z,3.3
2019-01-14T04:29:03.184Z,3.3
2019-01-14T04:30:03.669Z,3.4
2019-01-14T04:31:03.601Z,3.4
2019-01-14T04:32:02.770Z,3.3
2019-01-14T04:33:02.197Z,3.3
2019-01-14T04:34:03.593Z,3.3
2019-01-14T04:35:03.430Z,3.4
2019-01-14T04:36:02.635Z,3.3
2019-01-14T04:37:03.629Z,3.3
2019-01-14T04:38:02.725Z,3.3
2019-01-14T04:39:03.215Z,3.3
2019-01-14T04:40:03.147Z,3.3
2019-01-14T04:41:03.667Z,3.3
2019-01-14T04:42:02.711Z,3.4
2019-01-14T04:43:02.828Z,3.4
2019-01-14T04:44:02.129Z,3.4
2019-01-14T04:45:02.735Z,3.4
2019-01-14T04:46:03.619Z,3.3
2019-01-14T04:47:03.566Z,3.3
2019-01-14T04:48:02.874Z,3.4
2019-01-14T04:49:02.988Z,3.4
2019-01-14T04:50:03.213Z,3.4
2019-01-14T04:51:03.301Z,3.3
2019-01-14T04:52:03.017Z,3.3
2019-01-14T04:53:03.486Z,3.4
2019-01-14T04:54:02.680Z,3.4
2019-01-14T04:55:03.298Z,3.4
2019-01-14T04:56:04.712Z,3.4
2019-01-14T04:57:03.294Z,3.4
2019-01-14T04:58:03.069Z,3.4
2019-01-14T04:59:03.246Z,3.4
2019-01-14T05:00:02.865Z,3.3
2019-01-14T05:01:03.546Z,3.3
2019-01-14T05:02:02.902Z,3.3
2019-01-14T05:03:03.673Z,3.3
2019-01-14T05:04:03.303Z,3.4
2019-01-14T05:05:02.865Z,3.4
2019-01-14T05:06:02.854Z,3.4
2019-01-14T05:07:03.475Z,3.4
2019-01-14T05:08:02.971Z,3.4
2019-01-14T05:09:03.730Z,3.4
2019-01-14T05:10:03.711Z,3.4
2019-01-14T05:11:03.237Z,3.4
2019-01-14T05:12:03.015Z,3.4
2019-01-14T05:13:02.986Z,3.4
2019-01-14T05:14:03.195Z,3.4
2019-01-14T05:15:03.039Z,3.3
2019-01-14T05:16:02.821Z,3.4
2019-01-14T05:17:02.796Z,3.4
2019-01-14T05:18:03.064Z,3.4
2019-01-14T05:19:02.948Z,3.4
2019-01-14T05:20:02.980Z,3.4
2019-01-14T05:21:03.171Z,3.4
2019-01-14T05:22:02.997Z,3.4
2019-01-14T05:23:03.128Z,3.4
2019-01-14T05:24:03.360Z,3.4
2019-01-14T05:25:03.569Z,3.4
2019-01-14T05:26:03.029Z,3.4
2019-01-14T05:27:03.161Z,3.4
2019-01-14T05:28:02.854Z,3.4
2019-01-14T05:29:03.558Z,3.4
2019-01-14T05:30:03.349Z,3.4
2019-01-14T05:31:03.145Z,3.4
2019-01-14T05:32:03.154Z,3.4
2019-01-14T05:33:02.694Z,3.4
2019-01-14T05:34:03.090Z,3.4
2019-01-14T05:35:03.582Z,3.4
2019-01-14T05:36:03.656Z,3.4
2019-01-14T05:37:02.878Z,3.5
2019-01-14T05:38:03.249Z,3.5
2019-01-14T05:39:02.935Z,3.5
2019-01-14T05:40:03.316Z,3.5
2019-01-14T05:41:02.933Z,3.4
2019-01-14T05:42:03.134Z,3.4
2019-01-14T05:43:03.145Z,3.4
2019-01-14T05:44:03.365Z,3.5
2019-01-14T05:45:03.564Z,3.6
2019-01-14T05:46:03.155Z,3.5
2019-01-14T05:47:03.132Z,3.5
2019-01-14T05:48:03.106Z,3.5
2019-01-14T05:49:03.636Z,3.5
2019-01-14T05:50:03.322Z,3.5
2019-01-14T05:51:03.561Z,3.5
2019-01-14T05:52:03.368Z,3.4
2019-01-14T05:53:03.453Z,3.4
2019-01-14T05:54:03.562Z,3.4
2019-01-14T05:55:04.002Z,3.5
2019-01-14T05:56:02.913Z,3.5
2019-01-14T05:57:02.637Z,3.5
2019-01-14T05:58:02.734Z,3.5
2019-01-14T05:59:02.782Z,3.5
2019-01-14T06:00:03.690Z,3.5
2019-01-14T06:01:03.063Z,3.5
2019-01-14T06:02:03.082Z,3.5
2019-01-14T06:03:02.934Z,3.5
2019-01-14T06:04:03.566Z,3.5
2019-01-14T06:05:02.823Z,3.5
2019-01-14T06:06:03.538Z,3.4
2019-01-14T06:07:03.673Z,3.4
2019-01-14T06:08:02.956Z,3.4
2019-01-14T06:09:02.928Z,3.4
2019-01-14T06:10:03.681Z,3.4
2019-01-14T06:11:03.565Z,3.4
2019-01-14T06:12:02.922Z,3.4
2019-01-14T06:13:03.438Z,3.4
2019-01-14T06:14:02.599Z,3.3
2019-01-14T06:15:03.589Z,3.3
2019-01-14T06:16:03.040Z,3.3
2019-01-14T06:17:03.190Z,3.3
2019-01-14T06:18:03.070Z,3.3
2019-01-14T06:19:03.630Z,3.4
2019-01-14T06:20:03.147Z,3.3
2019-01-14T06:21:03.088Z,3.3
2019-01-14T06:22:03.146Z,3.3
2019-01-14T06:23:03.573Z,3.3
2019-01-14T06:24:03.411Z,3.3
2019-01-14T06:25:03.477Z,3.3
2019-01-14T06:26:02.586Z,3.3
2019-01-14T06:27:02.836Z,3.3
2019-01-14T06:28:02.842Z,3.3
2019-01-14T06:29:03.284Z,3.3
2019-01-14T06:30:03.187Z,3.3
2019-01-14T06:31:03.679Z,3.4
2019-01-14T06:32:03.145Z,3.3
2019-01-14T06:33:03.132Z,3.3
2019-01-14T06:34:03.589Z,3.4
2019-01-14T06:35:03.388Z,3.4
2019-01-14T06:36:03.118Z,3.4
2019-01-14T06:37:03.527Z,3.3
2019-01-14T06:38:02.742Z,3.3
2019-01-14T06:39:02.889Z,3.3
2019-01-14T06:40:03.703Z,3.3
2019-01-14T06:41:03.597Z,3.3
2019-01-14T06:42:07.744Z,3.3
2019-01-14T06:43:03.675Z,3.3
2019-01-14T06:44:03.289Z,3.3
2019-01-14T06:45:03.069Z,3.3
2019-01-14T06:46:03.331Z,3.3
2019-01-14T06:47:03.682Z,3.3
2019-01-14T06:48:03.357Z,3.2
2019-01-14T06:49:02.950Z,3.2
2019-01-14T06:50:02.752Z,3.2
2019-01-14T06:51:03.177Z,3.2
2019-01-14T06:52:03.315Z,3.2
2019-01-14T06:53:02.846Z,3.1
2019-01-14T06:54:03.220Z,3.2
2019-01-14T06:55:03.023Z,3.1
2019-01-14T06:56:03.519Z,3.1
2019-01-14T06:57:03.515Z,3.1
2019-01-14T06:58:03.289Z,3.1
2019-01-14T06:59:02.899Z,3.1
2019-01-14T07:00:03.088Z,3.1
2019-01-14T07:01:02.766Z,3.1
2019-01-14T07:02:02.580Z,3.1
2019-01-14T07:03:03.200Z,3.1
2019-01-14T07:04:03.072Z,3.1
2019-01-14T07:05:03.667Z,3
2019-01-14T07:06:03.164Z,3
2019-01-14T07:07:03.403Z,3
2019-01-14T07:08:03.109Z,3
2019-01-14T07:09:03.267Z,3
2019-01-14T07:10:03.317Z,3
2019-01-14T07:11:02.960Z,3
2019-01-14T07:12:02.860Z,3
2019-01-14T07:13:02.673Z,3
2019-01-14T07:14:03.005Z,3
2019-01-14T07:15:03.198Z,3
2019-01-14T07:16:03.485Z,3
2019-01-14T07:17:03.092Z,3
2019-01-14T07:18:03.402Z,3
2019-01-14T07:19:03.437Z,3
2019-01-14T07:20:02.847Z,3
2019-01-14T07:21:03.398Z,3
2019-01-14T07:22:02.907Z,3
2019-01-14T07:23:03.464Z,3
2019-01-14T07:24:02.707Z,3
2019-01-14T07:25:02.795Z,3
2019-01-14T07:26:03.298Z,3.1
2019-01-14T07:27:02.703Z,3
2019-01-14T07:28:02.729Z,3
2019-01-14T07:29:03.267Z,3
2019-01-14T07:30:02.859Z,3.1
2019-01-14T07:31:03.387Z,3.1
2019-01-14T07:32:02.945Z,3.1
2019-01-14T07:33:03.027Z,3.1
2019-01-14T07:34:02.901Z,3.1
2019-01-14T07:35:03.146Z,3.1
2019-01-14T07:36:03.402Z,3.1
2019-01-14T07:37:03.078Z,3.1
2019-01-14T07:38:07.339Z,3.1
2019-01-14T07:39:03.308Z,3.1
2019-01-14T07:40:02.681Z,3.1
2019-01-14T07:41:03.228Z,3.1
2019-01-14T07:42:03.001Z,3.1
2019-01-14T07:43:03.275Z,3.1
2019-01-14T07:44:03.567Z,3.1
2019-01-14T07:45:03.214Z,3.1
2019-01-14T07:46:03.435Z,3.1
2019-01-14T07:47:02.973Z,3
2019-01-14T07:48:03.548Z,3
2019-01-14T07:49:02.794Z,3
2019-01-14T07:50:03.669Z,3.1
2019-01-14T07:51:03.215Z,3.1
2019-01-14T07:52:03.199Z,3.1
2019-01-14T07:53:03.529Z,3.1
2019-01-14T07:54:03.690Z,3
2019-01-14T07:55:03.316Z,3.1
2019-01-14T07:56:03.282Z,3.1
2019-01-14T07:57:02.762Z,3.1
2019-01-14T07:58:02.912Z,3.1
2019-01-14T07:59:03.112Z,3.1
2019-01-14T08:00:03.635Z,3.1
2019-01-14T08:01:03.676Z,3.1
2019-01-14T08:02:03.246Z,3.1
2019-01-14T08:03:03.136Z,3.1
2019-01-14T08:04:03.393Z,3.1
2019-01-14T08:05:03.092Z,3.2
2019-01-14T08:06:03.648Z,3.2
2019-01-14T08:07:02.884Z,3.3
2019-01-14T08:08:03.365Z,3.3
2019-01-14T08:09:03.771Z,3.3
2019-01-14T08:10:03.277Z,3.3
2019-01-14T08:11:02.786Z,3.3
2019-01-14T08:12:03.062Z,3.3
2019-01-14T08:13:03.063Z,3.3
2019-01-14T08:14:03.372Z,3.3
2019-01-14T08:15:03.157Z,3.3
2019-01-14T08:16:03.462Z,3.3
2019-01-14T08:17:03.619Z,3.3
2019-01-14T08:18:02.894Z,3.4
2019-01-14T08:19:03.223Z,3.3
2019-01-14T08:20:03.755Z,3.3
2019-01-14T08:21:03.650Z,3.3
2019-01-14T08:22:02.895Z,3.3
2019-01-14T08:23:03.522Z,3.2
2019-01-14T08:24:03.398Z,3.1
2019-01-14T08:25:03.523Z,3
2019-01-14T08:26:02.917Z,2.9
2019-01-14T08:27:02.931Z,2.8
2019-01-14T08:28:03.304Z,2.8
2019-01-14T08:29:03.332Z,2.6
2019-01-14T08:30:02.896Z,2.6
2019-01-14T08:31:03.454Z,2.6
2019-01-14T08:32:03.357Z,2.8
2019-01-14T08:33:03.554Z,2.8
2019-01-14T08:34:02.754Z,2.9
2019-01-14T08:35:03.116Z,2.9
2019-01-14T08:36:03.227Z,2.9
2019-01-14T08:37:03.451Z,2.9
2019-01-14T08:38:03.555Z,2.9
2019-01-14T08:39:03.395Z,2.9
2019-01-14T08:40:03.703Z,2.9
2019-01-14T08:41:03.411Z,2.9
2019-01-14T08:42:02.989Z,2.9
2019-01-14T08:43:02.882Z,2.9
2019-01-14T08:44:03.192Z,2.9
2019-01-14T08:45:03.289Z,3
2019-01-14T08:46:02.344Z,3
2019-01-14T08:47:03.254Z,3
2019-01-14T08:48:02.766Z,3
2019-01-14T08:49:03.593Z,3
2019-01-14T08:50:02.873Z,3
2019-01-14T08:51:03.187Z,2.9
2019-01-14T08:52:03.595Z,2.9
2019-01-14T08:53:03.596Z,3
2019-01-14T08:54:02.660Z,2.9
2019-01-14T08:55:03.380Z,2.9
2019-01-14T08:56:02.842Z,2.9
2019-01-14T08:57:03.320Z,2.9
2019-01-14T08:58:03.269Z,2.9
2019-01-14T08:59:03.217Z,2.9
2019-01-14T09:00:03.153Z,2.9
2019-01-14T09:01:02.789Z,2.9
2019-01-14T09:02:03.504Z,2.9
2019-01-14T09:03:03.268Z,2.9
2019-01-14T09:04:02.953Z,2.9
2019-01-14T09:05:02.947Z,2.9
2019-01-14T09:06:03.033Z,2.9
2019-01-14T09:07:03.185Z,2.9
2019-01-14T09:08:03.056Z,2.9
2019-01-14T09:09:02.835Z,2.9
2019-01-14T09:10:03.090Z,2.9
2019-01-14T09:11:03.279Z,2.8
2019-01-14T09:12:02.915Z,2.8
2019-01-14T09:13:03.475Z,2.8
2019-01-14T09:14:03.364Z,2.8
2019-01-14T09:15:03.226Z,2.7
2019-01-14T09:16:03.087Z,2.7
2019-01-14T09:17:03.623Z,2.7
2019-01-14T09:18:03.502Z,2.7
2019-01-14T09:19:03.181Z,2.7
2019-01-14T09:20:03.362Z,2.7
2019-01-14T09:21:02.714Z,2.6
2019-01-14T09:22:02.858Z,2.7
2019-01-14T09:23:03.362Z,2.6
2019-01-14T09:24:03.456Z,2.6
2019-01-14T09:25:03.617Z,2.7
2019-01-14T09:26:03.422Z,2.7
2019-01-14T09:27:02.824Z,2.7
2019-01-14T09:28:03.265Z,2.7
2019-01-14T09:29:01.845Z,2.7
2019-01-14T09:30:03.119Z,2.7
2019-01-14T09:31:03.621Z,2.8
2019-01-14T09:32:03.457Z,2.7
2019-01-14T09:33:03.417Z,2.7
2019-01-14T09:34:03.484Z,2.7
2019-01-14T09:35:02.988Z,2.7
2019-01-14T09:36:02.924Z,2.7
2019-01-14T09:37:03.290Z,2.7
2019-01-14T09:38:03.469Z,2.7
2019-01-14T09:39:02.834Z,2.6
2019-01-14T09:40:03.767Z,2.6
2019-01-14T09:41:04.204Z,2.6
2019-01-14T09:42:03.025Z,2.7
2019-01-14T09:43:03.495Z,2.7
2019-01-14T09:44:03.324Z,2.8
2019-01-14T09:45:02.791Z,2.8
2019-01-14T09:46:03.480Z,2.8
2019-01-14T09:47:03.724Z,2.8
2019-01-14T09:48:03.289Z,2.8
2019-01-14T09:49:02.805Z,2.8
2019-01-14T09:50:02.998Z,2.8
2019-01-14T09:51:03.374Z,2.8
2019-01-14T09:52:03.691Z,2.8
2019-01-14T09:53:03.319Z,2.8
2019-01-14T09:54:02.809Z,2.8
2019-01-14T09:55:06.039Z,2.8
2019-01-14T09:56:02.788Z,2.8
2019-01-14T09:57:03.667Z,2.8
2019-01-14T09:58:03.004Z,2.7
2019-01-14T09:59:02.846Z,2.8
2019-01-14T10:00:02.980Z,2.8
2019-01-14T10:01:02.770Z,2.8
2019-01-14T10:02:02.816Z,2.8
2019-01-14T10:03:03.390Z,2.8
2019-01-14T10:04:03.052Z,2.8
2019-01-14T10:05:02.883Z,2.8
2019-01-14T10:06:03.319Z,2.8
2019-01-14T10:07:02.972Z,2.8
2019-01-14T10:08:03.015Z,2.8
2019-01-14T10:09:04.145Z,2.8
2019-01-14T10:10:03.163Z,2.8
2019-01-14T10:11:02.998Z,2.8
2019-01-14T10:12:03.093Z,2.8
2019-01-14T10:13:02.947Z,2.8
2019-01-14T10:14:02.751Z,2.8
2019-01-14T10:15:02.912Z,2.8
2019-01-14T10:16:03.151Z,2.8
2019-01-14T10:17:03.610Z,2.9
2019-01-14T10:18:02.941Z,2.9
2019-01-14T10:19:02.650Z,2.9
2019-01-14T10:20:03.308Z,2.9
2019-01-14T10:21:02.755Z,2.9
2019-01-14T10:22:03.661Z,2.9
2019-01-14T10:23:02.966Z,2.9
2019-01-14T10:24:03.645Z,2.9
2019-01-14T10:25:03.648Z,2.9
2019-01-14T10:26:02.926Z,2.9
2019-01-14T10:27:03.155Z,3
2019-01-14T10:28:03.434Z,3.1
2019-01-14T10:29:02.842Z,3.1
2019-01-14T10:30:02.975Z,3
2019-01-14T10:31:03.540Z,3.1
2019-01-14T10:32:03.027Z,3.1
2019-01-14T10:33:02.974Z,3.1
2019-01-14T10:34:02.947Z,3.1
2019-01-14T10:35:02.947Z,3.1
2019-01-14T10:36:02.896Z,3.1
2019-01-14T10:37:03.474Z,3.1
2019-01-14T10:38:02.986Z,3.1
2019-01-14T10:39:02.959Z,3.3
2019-01-14T10:40:03.653Z,3.4
2019-01-14T10:41:02.895Z,3.4
2019-01-14T10:42:05.323Z,3.5
2019-01-14T10:43:03.298Z,3.5
2019-01-14T10:44:02.998Z,3.5
2019-01-14T10:45:03.630Z,3.5
2019-01-14T10:46:02.943Z,3.6
2019-01-14T10:47:02.819Z,3.7
2019-01-14T10:48:03.414Z,3.6
2019-01-14T10:49:07.178Z,3.6
2019-01-14T10:50:02.894Z,3.6
2019-01-14T10:51:02.367Z,3.5
2019-01-14T10:52:03.466Z,3.5
2019-01-14T10:53:03.208Z,3.5
2019-01-14T10:54:03.130Z,3.6
2019-01-14T10:55:03.203Z,3.6
2019-01-14T10:56:02.917Z,3.6
2019-01-14T10:57:03.505Z,3.6
2019-01-14T10:58:02.573Z,3.6
2019-01-14T10:59:02.934Z,3.6
2019-01-14T11:00:03.125Z,3.6
2019-01-14T11:01:03.541Z,3.6
2019-01-14T11:02:03.385Z,3.7
2019-01-14T11:03:03.529Z,3.7
2019-01-14T11:04:03.325Z,3.7
2019-01-14T11:05:02.812Z,3.8
2019-01-14T11:06:03.008Z,3.8
2019-01-14T11:07:03.518Z,3.9
2019-01-14T11:08:02.942Z,3.9
2019-01-14T11:09:06.303Z,4.1
2019-01-14T11:10:03.537Z,4
2019-01-14T11:11:02.680Z,4
2019-01-14T11:12:03.523Z,3.9
2019-01-14T11:13:03.078Z,3.9
2019-01-14T11:14:03.422Z,3.9
2019-01-14T11:15:03.481Z,3.9
2019-01-14T11:16:03.384Z,3.8
2019-01-14T11:17:02.751Z,3.8
2019-01-14T11:18:02.989Z,3.7
2019-01-14T11:19:03.331Z,3.7
2019-01-14T11:20:02.997Z,3.7
2019-01-14T11:21:02.727Z,3.7
2019-01-14T11:22:02.808Z,3.8
2019-01-14T11:23:02.766Z,3.8
2019-01-14T11:24:03.544Z,3.8
2019-01-14T11:25:03.396Z,3.8
2019-01-14T11:26:03.210Z,3.8
2019-01-14T11:27:02.996Z,3.7
2019-01-14T11:28:03.145Z,3.6
2019-01-14T11:29:03.354Z,3.6
2019-01-14T11:30:02.650Z,3.6
2019-01-14T11:31:03.113Z,3.6
2019-01-14T11:32:03.215Z,3.6
2019-01-14T11:33:03.250Z,3.6
2019-01-14T11:34:02.971Z,3.6
2019-01-14T11:35:03.693Z,3.6
2019-01-14T11:36:02.854Z,3.7
2019-01-14T11:37:03.302Z,3.8
2019-01-14T11:38:03.078Z,3.8
2019-01-14T11:39:05.475Z,3.8
2019-01-14T11:40:03.166Z,3.8
2019-01-14T11:41:02.930Z,3.8
2019-01-14T11:42:03.567Z,3.8
2019-01-14T11:43:03.023Z,3.8
2019-01-14T11:44:03.040Z,3.8
2019-01-14T11:45:03.111Z,3.8
2019-01-14T11:46:03.123Z,3.8
2019-01-14T11:47:03.757Z,3.8
2019-01-14T11:48:03.105Z,3.8
2019-01-14T11:49:02.637Z,3.8
2019-01-14T11:50:03.436Z,3.7
2019-01-14T11:51:03.605Z,3.7
2019-01-14T11:52:03.398Z,3.7
2019-01-14T11:53:02.968Z,3.6
2019-01-14T11:54:02.876Z,3.6
2019-01-14T11:55:03.214Z,3.6
2019-01-14T11:56:02.599Z,3.6
2019-01-14T11:57:02.656Z,3.6
2019-01-14T11:58:03.439Z,3.5
2019-01-14T11:59:03.163Z,3.5
2019-01-14T12:00:03.068Z,3.6
2019-01-14T12:01:02.854Z,3.5
2019-01-14T12:02:02.691Z,3.5
2019-01-14T12:03:02.866Z,3.5
2019-01-14T12:04:03.120Z,3.6
2019-01-14T12:05:03.213Z,3.5
2019-01-14T12:06:03.436Z,3.4
2019-01-14T12:07:03.342Z,3.5
2019-01-14T12:08:03.258Z,3.5
2019-01-14T12:09:02.768Z,3.5
2019-01-14T12:10:03.622Z,3.4
2019-01-14T12:11:03.232Z,3.4
2019-01-14T12:12:03.544Z,3.4
2019-01-14T12:13:02.908Z,3.5
2019-01-14T12:14:03.457Z,3.5
2019-01-14T12:15:02.741Z,3.5
2019-01-14T12:16:03.402Z,3.5
2019-01-14T12:17:02.918Z,3.5
2019-01-14T12:18:03.147Z,3.6
2019-01-14T12:19:03.598Z,3.6
2019-01-14T12:20:02.139Z,3.6
2019-01-14T12:21:03.520Z,3.6
2019-01-14T12:22:02.955Z,3.6
2019-01-14T12:23:02.428Z,3.7
2019-01-14T12:24:03.541Z,3.7
2019-01-14T12:25:03.507Z,3.7
2019-01-14T12:26:03.058Z,3.6
2019-01-14T12:27:06.272Z,3.7
2019-01-14T12:28:03.152Z,3.7
2019-01-14T12:29:02.898Z,3.7
2019-01-14T12:30:02.861Z,3.7
2019-01-14T12:31:03.646Z,3.6
2019-01-14T12:32:03.005Z,3.7
2019-01-14T12:33:02.752Z,3.7
2019-01-14T12:34:02.722Z,3.8
2019-01-14T12:35:03.522Z,3.8
2019-01-14T12:36:03.022Z,3.7
2019-01-14T12:37:02.746Z,3.7
2019-01-14T12:38:06.781Z,3.8
2019-01-14T12:39:03.736Z,3.8
2019-01-14T12:40:03.546Z,3.7
2019-01-14T12:41:02.836Z,3.8
2019-01-14T12:42:03.554Z,3.8
2019-01-14T12:43:03.570Z,3.8
2019-01-14T12:44:03.439Z,3.8
2019-01-14T12:45:03.269Z,3.8
2019-01-14T12:46:03.524Z,3.8
2019-01-14T12:47:03.319Z,3.8
2019-01-14T12:48:03.205Z,3.8
2019-01-14T12:49:03.031Z,3.8
2019-01-14T12:50:03.125Z,3.8
2019-01-14T12:51:03.654Z,3.8
2019-01-14T12:52:03.865Z,3.7
2019-01-14T12:53:03.766Z,3.8
2019-01-14T12:54:02.679Z,3.7
2019-01-14T12:55:03.432Z,3.7
2019-01-14T12:56:03.163Z,3.8
2019-01-14T12:57:02.951Z,3.8
2019-01-14T12:58:03.375Z,3.7
2019-01-14T12:59:03.600Z,3.8
2019-01-14T13:00:03.299Z,3.7
2019-01-14T13:01:02.945Z,3.7
2019-01-14T13:02:02.568Z,3.8
2019-01-14T13:03:03.414Z,3.6
2019-01-14T13:04:02.799Z,3.7
2019-01-14T13:05:03.420Z,3.7
2019-01-14T13:06:02.074Z,3.8
2019-01-14T13:07:03.470Z,3.7
2019-01-14T13:08:03.510Z,3.7
2019-01-14T13:09:03.584Z,3.8
2019-01-14T13:10:03.758Z,3.8
2019-01-14T13:11:03.190Z,3.7
2019-01-14T13:12:02.946Z,3.8
2019-01-14T13:13:02.957Z,3.7
2019-01-14T13:14:03.729Z,3.8
2019-01-14T13:15:03.818Z,3.7
2019-01-14T13:16:02.974Z,3.7
2019-01-14T13:17:02.657Z,3.6
2019-01-14T13:18:05.816Z,3.7
2019-01-14T13:19:02.683Z,3.7
2019-01-14T13:20:03.152Z,3.7
2019-01-14T13:21:02.735Z,3.7
2019-01-14T13:22:03.360Z,3.7
2019-01-14T13:23:02.973Z,3.7
2019-01-14T13:24:03.516Z,3.7
2019-01-14T13:25:03.628Z,3.6
2019-01-14T13:26:03.658Z,3.4
2019-01-14T13:27:03.052Z,3.2
2019-01-14T13:28:03.654Z,3.1
2019-01-14T13:29:03.032Z,3
2019-01-14T13:30:03.709Z,2.9
2019-01-14T13:31:03.226Z,2.8
2019-01-14T13:32:03.563Z,2.8
2019-01-14T13:33:03.718Z,2.8
2019-01-14T13:34:03.371Z,2.8
2019-01-14T13:35:03.416Z,2.8
2019-01-14T13:36:02.859Z,2.8
2019-01-14T13:37:02.803Z,2.8
2019-01-14T13:38:02.809Z,2.8
2019-01-14T13:39:02.821Z,2.8
2019-01-14T13:40:02.969Z,2.8
2019-01-14T13:41:03.216Z,2.8
2019-01-14T13:42:02.830Z,2.7
2019-01-14T13:43:02.759Z,2.7
2019-01-14T13:44:03.119Z,2.7
2019-01-14T13:45:03.456Z,2.6
2019-01-14T13:46:02.781Z,2.5
2019-01-14T13:47:03.462Z,2.4
2019-01-14T13:48:03.813Z,2.4
2019-01-14T13:49:03.497Z,2.4